Time;durP1;ratioP1;P1;durP2;ratioP2;P2;SDS_P1;SDS_P2;PMS_P1;PMS_P2;Temp;Humidity;BMP_temperature;BMP_pressure;BME280_temperature;BME280_humidity;BME280_pressure;Samples;Min_cycle;Max_cycle;Signal;HPM_P1;HPM_P2
2023/07/17 00:00:45;;;;;;;;;8.00;7.00;30.30;52.30;;;;;;111359;1239;53676;-68
2023/07/17 00:03:32;;;;;;;;;9.00;8.00;30.30;52.10;;;;;;111351;1238;44575;-67
2023/07/17 00:05:59;;;;;;;;;7.75;7.00;30.30;52.30;;;;;;111271;1238;49043;-67
2023/07/17 00:08:26;;;;;;;;;8.00;6.25;30.30;52.20;;;;;;111318;1244;49670;-66
2023/07/17 00:10:53;;;;;;;;;7.00;6.00;30.30;52.00;;;;;;111253;1238;54262;-66
2023/07/17 00:13:20;;;;;;;;;8.00;8.00;30.30;52.10;;;;;;111263;1238;44176;-66
2023/07/17 00:15:47;;;;;;;;;7.25;6.25;30.30;52.10;;;;;;111352;1238;49855;-65
2023/07/17 00:18:14;;;;;;;;;8.33;7.67;30.30;52.10;;;;;;111348;1238;48712;-66
2023/07/17 00:20:41;;;;;;;;;9.00;7.00;30.30;52.10;;;;;;111249;1240;53691;-68
2023/07/17 00:23:08;;;;;;;;;7.25;7.25;30.30;52.20;;;;;;111238;1238;44731;-68
2023/07/17 00:25:35;;;;;;;;;7.00;6.50;30.30;51.80;;;;;;111224;1241;48624;-66
2023/07/17 00:28:02;;;;;;;;;9.00;7.00;30.20;52.10;;;;;;111252;1244;49343;-65
2023/07/17 00:30:29;;;;;;;;;7.00;6.33;30.20;52.10;;;;;;111285;1243;53689;-67
2023/07/17 00:32:56;;;;;;;;;9.25;8.25;30.20;52.10;;;;;;111290;1239;45274;-66
2023/07/17 00:35:23;;;;;;;;;9.25;8.25;30.20;52.10;;;;;;111231;1238;48897;-66
2023/07/17 00:37:50;;;;;;;;;10.00;9.25;30.20;52.20;;;;;;111249;1243;50395;-68
2023/07/17 00:40:17;;;;;;;;;8.50;7.00;30.20;52.10;;;;;;111236;1244;54666;-66
2023/07/17 00:42:43;;;;;;;;;7.75;6.75;30.20;52.20;;;;;;111296;1243;45799;-66
2023/07/17 00:45:10;;;;;;;;;8.25;7.25;30.20;52.20;;;;;;111303;1243;48455;-66
2023/07/17 00:47:37;;;;;;;;;9.00;8.00;30.20;52.20;;;;;;111318;1241;48982;-66
2023/07/17 00:50:05;;;;;;;;;8.00;7.00;30.20;51.80;;;;;;111277;1238;53643;-66
2023/07/17 00:52:32;;;;;;;;;7.00;6.75;30.20;52.40;;;;;;111305;1240;44786;-66
2023/07/17 00:54:59;;;;;;;;;8.00;7.00;30.20;52.20;;;;;;111287;1243;49119;-67
2023/07/17 00:57:26;;;;;;;;;9.00;8.67;30.20;52.20;;;;;;111296;1238;49261;-66
2023/07/17 00:59:54;;;;;;;;;8.75;7.25;30.10;52.10;;;;;;111315;1243;54245;-68
2023/07/17 01:02:22;;;;;;;;;10.00;8.00;30.20;52.20;;;;;;111404;1238;45328;-67
2023/07/17 01:04:48;;;;;;;;;9.00;8.00;30.20;52.20;;;;;;111238;1244;49420;-66
2023/07/17 01:07:15;;;;;;;;;7.75;7.00;30.10;52.20;;;;;;111218;1238;50024;-67
2023/07/17 01:09:43;;;;;;;;;7.33;7.00;30.10;52.40;;;;;;111235;1240;53738;-66
2023/07/17 01:12:10;;;;;;;;;10.00;8.00;30.10;52.30;;;;;;111245;1243;44862;-67
2023/07/17 01:14:37;;;;;;;;;7.25;7.00;30.10;52.10;;;;;;111144;1240;48850;-66
2023/07/17 01:17:04;;;;;;;;;8.33;8.00;30.10;52.20;;;;;;111246;1238;48972;-68
2023/07/17 01:19:31;;;;;;;;;8.00;8.00;30.10;52.30;;;;;;111195;1239;53431;-67
2023/07/17 01:22:00;;;;;;;;;8.00;7.25;30.10;52.10;;;;;;111223;1244;44093;-67
2023/07/17 01:24:27;;;;;;;;;8.00;8.00;30.10;52.30;;;;;;111302;1238;49550;-66
2023/07/17 01:26:54;;;;;;;;;10.00;9.00;30.10;52.50;;;;;;111263;1243;48504;-67
2023/07/17 01:29:21;;;;;;;;;8.00;7.00;30.10;52.40;;;;;;111234;1243;53539;-67
2023/07/17 01:31:48;;;;;;;;;9.00;8.00;30.10;52.10;;;;;;111267;1240;45080;-67
2023/07/17 01:34:15;;;;;;;;;8.67;7.67;30.00;52.10;;;;;;111368;1240;48419;-66
2023/07/17 01:36:42;;;;;;;;;8.33;7.67;30.00;52.10;;;;;;111226;1243;48983;-67
2023/07/17 01:39:09;;;;;;;;;6.33;6.33;30.00;52.10;;;;;;111239;1240;54611;-68
2023/07/17 01:41:36;;;;;;;;;9.00;8.25;30.00;52.10;;;;;;111210;1243;44137;-67
2023/07/17 01:44:03;;;;;;;;;8.00;8.00;30.00;52.10;;;;;;111223;1243;48972;-66
2023/07/17 01:46:30;;;;;;;;;8.75;8.50;30.00;52.20;;;;;;111245;1238;49543;-66
2023/07/17 01:48:57;;;;;;;;;9.00;8.67;30.00;52.10;;;;;;111219;1238;54110;-66
2023/07/17 01:51:24;;;;;;;;;8.67;7.67;30.00;52.10;;;;;;111251;1240;44766;-67
2023/07/17 01:53:51;;;;;;;;;8.50;7.75;30.00;52.10;;;;;;111351;1238;48415;-66
2023/07/17 01:56:18;;;;;;;;;8.75;8.00;30.00;52.20;;;;;;111282;1243;50236;-67
2023/07/17 01:58:45;;;;;;;;;7.25;7.00;30.00;52.10;;;;;;111200;1238;53202;-69
2023/07/17 02:01:12;;;;;;;;;7.00;6.00;30.00;52.30;;;;;;111238;1244;44395;-66
2023/07/17 02:03:39;;;;;;;;;8.25;7.25;30.00;52.40;;;;;;111305;1244;48893;-67
2023/07/17 02:06:06;;;;;;;;;9.75;8.50;30.00;52.20;;;;;;111282;1239;49233;-66
2023/07/17 02:08:34;;;;;;;;;9.00;7.00;29.90;52.10;;;;;;111297;1243;53102;-66
2023/07/17 02:11:00;;;;;;;;;9.00;8.00;30.00;52.10;;;;;;111260;1243;45699;-66
2023/07/17 02:13:28;;;;;;;;;9.00;8.75;29.90;52.10;;;;;;111252;1243;49434;-65
2023/07/17 02:15:55;;;;;;;;;8.00;8.00;29.90;52.30;;;;;;111299;1238;49061;-68
2023/07/17 02:18:22;;;;;;;;;7.67;7.00;29.90;52.10;;;;;;111116;1240;53686;-66
2023/07/17 02:20:50;;;;;;;;;7.75;6.75;29.90;52.30;;;;;;111312;1243;45639;-71
2023/07/17 02:23:18;;;;;;;;;8.00;7.25;29.90;52.10;;;;;;111312;1242;49137;-66
2023/07/17 02:25:44;;;;;;;;;9.75;8.75;29.90;52.10;;;;;;111264;1239;48977;-66
2023/07/17 02:28:11;;;;;;;;;9.00;8.00;29.90;52.10;;;;;;111289;1238;53897;-67
2023/07/17 02:30:38;;;;;;;;;8.25;8.00;29.90;52.30;;;;;;111274;1240;45208;-66
2023/07/17 02:33:06;;;;;;;;;9.00;8.00;29.90;52.10;;;;;;111275;1243;48817;-66
2023/07/17 02:35:33;;;;;;;;;8.00;7.25;29.90;52.30;;;;;;111227;1240;49062;-66
2023/07/17 02:38:00;;;;;;;;;8.00;7.00;29.90;52.30;;;;;;111244;1240;54624;-66
2023/07/17 02:40:27;;;;;;;;;9.33;9.00;29.90;52.10;;;;;;111292;1243;45880;-68
2023/07/17 02:42:54;;;;;;;;;8.00;7.50;29.90;52.30;;;;;;111261;1238;49082;-66
2023/07/17 02:45:21;;;;;;;;;9.00;9.00;29.90;52.10;;;;;;111292;1239;48962;-66
2023/07/17 02:47:48;;;;;;;;;10.00;8.25;29.90;52.10;;;;;;111280;1238;54226;-67
2023/07/17 02:50:14;;;;;;;;;10.67;9.33;29.90;52.10;;;;;;111250;1243;45047;-67
2023/07/17 02:52:41;;;;;;;;;9.75;9.50;29.90;52.00;;;;;;111256;1240;49521;-65
2023/07/17 02:55:09;;;;;;;;;10.00;8.00;29.90;52.20;;;;;;111267;1243;49634;-66
2023/07/17 02:57:36;;;;;;;;;8.67;8.00;29.90;52.00;;;;;;111258;1240;55246;-66
2023/07/17 03:00:12;;;;;;;;;8.00;7.00;29.90;52.00;;;;;;111305;1240;44776;-67
2023/07/17 03:02:42;;;;;;;;;8.50;8.00;29.90;52.00;;;;;;111339;1244;48648;-66
2023/07/17 03:05:10;;;;;;;;;8.00;7.00;29.90;52.00;;;;;;111283;1242;49439;-67
2023/07/17 03:07:42;;;;;;;;;8.00;7.33;29.90;52.00;;;;;;111232;1240;53627;-65
2023/07/17 03:10:10;;;;;;;;;10.00;9.00;29.90;52.00;;;;;;111256;1243;44640;-67
2023/07/17 03:12:37;;;;;;;;;7.50;7.25;29.90;52.00;;;;;;111254;1239;49437;-66
2023/07/17 03:15:05;;;;;;;;;10.00;9.00;29.90;52.00;;;;;;111327;1243;50714;-66
2023/07/17 03:17:33;;;;;;;;;8.00;7.00;29.90;52.20;;;;;;111293;1238;54770;-67
2023/07/17 03:20:01;;;;;;;;;9.00;8.00;29.90;52.00;;;;;;111247;1240;45662;-65
2023/07/17 03:22:28;;;;;;;;;9.25;8.75;29.80;52.00;;;;;;111289;1240;49752;-65
2023/07/17 03:24:55;;;;;;;;;10.75;9.50;29.90;52.00;;;;;;111283;1244;49663;-66
2023/07/17 03:27:23;;;;;;;;;9.75;8.75;29.90;52.00;;;;;;111244;1240;54077;-66
2023/07/17 03:29:50;;;;;;;;;9.75;8.50;29.90;52.00;;;;;;111263;1243;44936;-67
2023/07/17 03:32:16;;;;;;;;;10.00;8.00;29.90;52.00;;;;;;111278;1239;48529;-69
2023/07/17 03:34:43;;;;;;;;;10.00;9.50;29.80;51.90;;;;;;111306;1238;49308;-66
2023/07/17 03:37:11;;;;;;;;;9.75;8.00;29.80;52.20;;;;;;111253;1243;53638;-66
2023/07/17 03:39:38;;;;;;;;;8.00;7.33;29.80;52.20;;;;;;111304;1243;45544;-66
2023/07/17 03:42:10;;;;;;;;;9.75;8.75;29.80;52.00;;;;;;111243;1243;49396;-69
2023/07/17 03:44:38;;;;;;;;;9.00;8.00;29.80;52.00;;;;;;111311;1243;50038;-66
2023/07/17 03:47:06;;;;;;;;;9.00;8.00;29.80;52.10;;;;;;111241;1238;54117;-66
2023/07/17 03:49:33;;;;;;;;;9.00;9.00;29.80;52.00;;;;;;111341;1242;45105;-66
2023/07/17 03:52:00;;;;;;;;;7.00;7.00;29.80;52.60;;;;;;111270;1244;48683;-67
2023/07/17 03:54:27;;;;;;;;;9.00;8.75;29.80;52.10;;;;;;111268;1242;49861;-68
2023/07/17 03:56:54;;;;;;;;;8.00;7.00;29.80;52.10;;;;;;111267;1240;55164;-66
2023/07/17 03:59:25;;;;;;;;;8.00;8.00;29.80;52.10;;;;;;111323;1243;44624;-66
2023/07/17 04:01:51;;;;;;;;;8.33;7.33;29.80;52.10;;;;;;111222;1244;49191;-67
2023/07/17 04:04:19;;;;;;;;;10.00;9.25;29.80;52.10;;;;;;111328;1240;48802;-70
2023/07/17 04:06:47;;;;;;;;;8.00;7.75;29.70;52.10;;;;;;111343;1241;53923;-67
2023/07/17 04:09:15;;;;;;;;;10.00;8.67;29.80;52.20;;;;;;111311;1243;44983;-67
2023/07/17 04:11:45;;;;;;;;;9.25;9.00;29.70;52.10;;;;;;111269;1243;49002;-67
2023/07/17 04:14:12;;;;;;;;;10.50;9.75;29.70;52.30;;;;;;111231;1238;49314;-65
2023/07/17 04:16:40;;;;;;;;;9.50;9.00;29.70;52.10;;;;;;111304;1238;53698;-67
2023/07/17 04:19:06;;;;;;;;;9.67;8.67;29.70;52.30;;;;;;111277;1238;44213;-68
2023/07/17 04:21:33;;;;;;;;;11.00;9.00;29.70;52.10;;;;;;111237;1243;48764;-66
2023/07/17 04:24:00;;;;;;;;;7.75;7.25;29.70;52.30;;;;;;111244;1243;49495;-66
2023/07/17 04:26:27;;;;;;;;;9.00;8.00;29.70;52.20;;;;;;111265;1243;54439;-67
2023/07/17 04:28:54;;;;;;;;;9.00;8.00;29.70;52.40;;;;;;111284;1239;44078;-66
2023/07/17 04:31:21;;;;;;;;;7.75;7.00;29.70;52.20;;;;;;111273;1243;49386;-66
2023/07/17 04:33:48;;;;;;;;;8.00;7.00;29.70;52.20;;;;;;111324;1243;50090;-66
2023/07/17 04:36:15;;;;;;;;;9.00;8.00;29.70;52.20;;;;;;111152;1242;54445;-66
2023/07/17 04:38:42;;;;;;;;;11.00;8.00;29.70;52.40;;;;;;111272;1240;44432;-66
2023/07/17 04:41:09;;;;;;;;;9.00;8.25;29.60;52.10;;;;;;111216;1242;49118;-67
2023/07/17 04:43:36;;;;;;;;;9.00;7.00;29.70;52.30;;;;;;111250;1243;49617;-67
2023/07/17 04:46:04;;;;;;;;;9.00;8.00;29.60;52.10;;;;;;111274;1242;55693;-66
2023/07/17 04:48:31;;;;;;;;;10.00;9.00;29.60;52.20;;;;;;111291;1244;44307;-71
2023/07/17 04:50:58;;;;;;;;;10.00;9.00;29.60;52.30;;;;;;111295;1239;49479;-66
2023/07/17 04:53:25;;;;;;;;;10.00;9.00;29.60;52.10;;;;;;111323;1243;49176;-67
2023/07/17 04:55:52;;;;;;;;;8.25;7.75;29.60;52.20;;;;;;110765;1240;749021;-67
2023/07/17 04:58:19;;;;;;;;;9.75;9.50;29.60;52.20;;;;;;111219;1239;44855;-66
2023/07/17 05:00:47;;;;;;;;;9.00;8.00;29.60;52.20;;;;;;111224;1241;50149;-67
2023/07/17 05:03:14;;;;;;;;;10.00;9.00;29.60;52.20;;;;;;111236;1240;48737;-66
2023/07/17 05:05:48;;;;;;;;;10.00;8.00;29.60;52.20;;;;;;111296;1240;53374;-67
2023/07/17 05:08:17;;;;;;;;;9.33;8.67;29.60;52.40;;;;;;111325;1238;44182;-67
2023/07/17 05:11:02;;;;;;;;;10.33;10.00;29.60;52.20;;;;;;111331;1240;48359;-67
2023/07/17 05:13:29;;;;;;;;;8.00;7.00;29.60;52.40;;;;;;111262;1240;48554;-67
2023/07/17 05:15:56;;;;;;;;;9.00;8.00;29.60;52.40;;;;;;111293;1243;54696;-68
2023/07/17 05:18:23;;;;;;;;;10.25;9.75;29.60;52.10;;;;;;111278;1240;44253;-67
2023/07/17 05:20:51;;;;;;;;;9.00;8.00;29.60;52.30;;;;;;111333;1244;49277;-67
2023/07/17 05:23:18;;;;;;;;;9.25;8.50;29.60;52.30;;;;;;111277;1243;49008;-66
2023/07/17 05:25:53;;;;;;;;;9.00;7.50;29.60;52.40;;;;;;111254;1240;54144;-68
2023/07/17 05:28:20;;;;;;;;;9.25;8.00;29.60;52.10;;;;;;111365;1241;45348;-68
2023/07/17 05:30:52;;;;;;;;;9.50;8.00;29.60;52.10;;;;;;111271;1243;49376;-68
2023/07/17 05:33:20;;;;;;;;;9.25;8.75;29.60;52.10;;;;;;111295;1243;50123;-70
2023/07/17 05:35:47;;;;;;;;;9.00;8.00;29.60;52.20;;;;;;111226;1244;53698;-67
2023/07/17 05:38:14;;;;;;;;;10.00;9.00;29.60;52.20;;;;;;111312;1238;44225;-68
2023/07/17 05:40:41;;;;;;;;;8.00;7.33;29.60;52.40;;;;;;111261;1242;49691;-68
2023/07/17 05:43:08;;;;;;;;;9.00;8.00;29.60;52.20;;;;;;111274;1238;49586;-67
2023/07/17 05:45:36;;;;;;;;;10.25;8.75;29.60;52.20;;;;;;111328;1243;53514;-69
2023/07/17 05:48:03;;;;;;;;;9.25;8.25;29.60;52.20;;;;;;111290;1241;45557;-67
2023/07/17 05:50:30;;;;;;;;;10.00;9.00;29.60;52.20;;;;;;111302;1241;49940;-67
2023/07/17 05:52:57;;;;;;;;;10.00;9.50;29.60;52.20;;;;;;111315;1238;48759;-67
2023/07/17 05:55:24;;;;;;;;;8.75;8.25;29.60;52.20;;;;;;111411;1244;53861;-67
2023/07/17 05:57:51;;;;;;;;;9.00;8.25;29.60;52.20;;;;;;111349;1244;44301;-67
2023/07/17 06:00:19;;;;;;;;;11.00;10.00;29.60;52.20;;;;;;111295;1239;48588;-67
2023/07/17 06:02:46;;;;;;;;;9.25;8.25;29.60;52.20;;;;;;111319;1243;49826;-67
2023/07/17 06:05:13;;;;;;;;;10.00;9.00;29.60;52.40;;;;;;111330;1241;53879;-67
2023/07/17 06:07:40;;;;;;;;;10.00;9.00;29.50;51.70;;;;;;111360;1241;44366;-67
2023/07/17 06:10:07;;;;;;;;;10.00;8.25;29.60;52.20;;;;;;111272;1243;49334;-67
2023/07/17 06:12:34;;;;;;;;;9.25;8.75;29.60;52.20;;;;;;111263;1243;49429;-66
2023/07/17 06:15:03;;;;;;;;;9.33;8.33;29.60;52.20;;;;;;111269;1243;54222;-67
2023/07/17 06:17:30;;;;;;;;;10.33;10.00;29.60;52.40;;;;;;111270;1243;44578;-66
2023/07/17 06:19:57;;;;;;;;;9.50;9.00;29.60;51.80;;;;;;111244;1240;49684;-66
2023/07/17 06:22:24;;;;;;;;;10.00;8.00;29.60;52.20;;;;;;111280;1239;49297;-67
2023/07/17 06:24:51;;;;;;;;;10.00;9.00;29.60;52.40;;;;;;111288;1243;53918;-66
2023/07/17 06:27:18;;;;;;;;;12.00;11.00;29.60;52.30;;;;;;111339;1241;45280;-68
2023/07/17 06:29:45;;;;;;;;;10.00;9.75;29.50;52.20;;;;;;111332;1243;50071;-66
2023/07/17 06:32:12;;;;;;;;;8.00;8.00;29.60;52.20;;;;;;111269;1239;49909;-67
2023/07/17 06:34:41;;;;;;;;;9.75;9.00;29.60;52.30;;;;;;111385;1244;54189;-67
2023/07/17 06:37:08;;;;;;;;;9.25;8.25;29.60;52.30;;;;;;111217;1240;45742;-66
2023/07/17 06:39:35;;;;;;;;;11.00;10.25;29.60;52.30;;;;;;111295;1240;49249;-66
2023/07/17 06:42:02;;;;;;;;;10.00;9.50;29.60;52.50;;;;;;111199;1240;49039;-67
2023/07/17 06:44:29;;;;;;;;;10.75;9.50;29.60;52.30;;;;;;111303;1238;54090;-67
2023/07/17 06:46:56;;;;;;;;;9.00;8.50;29.60;52.30;;;;;;111280;1243;45102;-66
2023/07/17 06:49:23;;;;;;;;;8.50;8.00;29.60;52.30;;;;;;111226;1243;48404;-66
2023/07/17 06:51:50;;;;;;;;;9.00;8.25;29.60;52.50;;;;;;111343;1238;49142;-66
2023/07/17 06:54:17;;;;;;;;;11.00;9.75;29.60;52.30;;;;;;111272;1238;55208;-66
2023/07/17 06:56:45;;;;;;;;;9.50;9.00;29.60;52.30;;;;;;111288;1244;44239;-66
2023/07/17 06:59:12;;;;;;;;;8.75;8.50;29.60;52.30;;;;;;111286;1239;49214;-67
2023/07/17 07:01:39;;;;;;;;;9.25;8.75;29.50;52.20;;;;;;111301;1238;48700;-67
2023/07/17 07:04:06;;;;;;;;;8.33;7.00;29.60;52.30;;;;;;111324;1238;53929;-67
2023/07/17 07:06:33;;;;;;;;;10.00;9.00;29.60;52.30;;;;;;111311;1243;44892;-67
2023/07/17 07:09:00;;;;;;;;;11.00;10.25;29.60;52.50;;;;;;111255;1243;50883;-67
2023/07/17 07:11:27;;;;;;;;;10.00;8.00;29.60;52.30;;;;;;111316;1238;51038;-66
2023/07/17 07:13:54;;;;;;;;;9.00;8.25;29.60;52.30;;;;;;111276;1241;54051;-66
2023/07/17 07:16:21;;;;;;;;;10.00;9.50;29.60;52.30;;;;;;111274;1243;45113;-66
2023/07/17 07:18:47;;;;;;;;;8.00;8.00;29.60;52.30;;;;;;111265;1244;48814;-66
2023/07/17 07:21:14;;;;;;;;;11.00;9.00;29.60;52.30;;;;;;111255;1243;49564;-67
2023/07/17 07:23:41;;;;;;;;;8.50;8.00;29.60;52.40;;;;;;111246;1243;54011;-66
2023/07/17 07:26:08;;;;;;;;;9.75;8.25;29.60;52.30;;;;;;111256;1240;45760;-67
2023/07/17 07:28:35;;;;;;;;;9.00;8.00;29.60;52.30;;;;;;111259;1240;49158;-67
2023/07/17 07:31:02;;;;;;;;;9.50;7.75;29.60;52.60;;;;;;111267;1240;49195;-66
2023/07/17 07:33:29;;;;;;;;;9.67;9.00;29.60;52.40;;;;;;111298;1238;54430;-67
2023/07/17 07:35:56;;;;;;;;;9.00;8.75;29.60;52.40;;;;;;111292;1240;45240;-67
2023/07/17 07:38:23;;;;;;;;;11.00;10.67;29.60;52.40;;;;;;111257;1240;50419;-68
2023/07/17 07:40:50;;;;;;;;;9.75;9.00;29.60;52.40;;;;;;111176;1240;48985;-67
2023/07/17 07:43:17;;;;;;;;;10.00;8.25;29.60;52.40;;;;;;111247;1240;53760;-66
2023/07/17 07:45:44;;;;;;;;;8.50;8.25;29.60;52.40;;;;;;111235;1238;44966;-65
2023/07/17 07:48:11;;;;;;;;;12.00;11.00;29.60;52.40;;;;;;111233;1244;49574;-66
2023/07/17 07:50:38;;;;;;;;;8.50;8.25;29.70;52.50;;;;;;111284;1238;48875;-66
2023/07/17 07:53:05;;;;;;;;;10.00;9.75;29.70;52.00;;;;;;111251;1238;54062;-66
2023/07/17 07:55:32;;;;;;;;;10.00;9.00;29.70;52.60;;;;;;111276;1238;44634;-66
2023/07/17 07:57:59;;;;;;;;;10.67;9.00;29.70;52.60;;;;;;111312;1238;49910;-67
2023/07/17 08:00:26;;;;;;;;;11.00;10.00;29.70;52.60;;;;;;111297;1240;49775;-67
2023/07/17 08:02:54;;;;;;;;;10.00;9.00;29.80;52.60;;;;;;111305;1243;53740;-67
2023/07/17 08:05:22;;;;;;;;;9.00;8.33;29.80;52.60;;;;;;111308;1240;44599;-67
2023/07/17 08:07:49;;;;;;;;;11.00;10.00;29.80;52.70;;;;;;111262;1244;48778;-68
2023/07/17 08:10:16;;;;;;;;;8.25;7.25;29.80;52.60;;;;;;111236;1240;50324;-67
2023/07/17 08:12:43;;;;;;;;;9.25;8.00;29.80;52.60;;;;;;111247;1241;54349;-66
2023/07/17 08:15:10;;;;;;;;;11.00;10.67;29.80;52.70;;;;;;111285;1238;45176;-66
2023/07/17 08:17:37;;;;;;;;;9.75;8.50;29.80;52.60;;;;;;111264;1238;50670;-67
2023/07/17 08:20:06;;;;;;;;;10.25;9.50;29.90;52.70;;;;;;111270;1243;51926;-67
2023/07/17 08:22:33;;;;;;;;;9.00;8.00;29.90;52.70;;;;;;111346;1238;54394;-67
2023/07/17 08:25:00;;;;;;;;;9.50;9.25;29.90;52.70;;;;;;111303;1243;44363;-67
2023/07/17 08:27:27;;;;;;;;;8.25;7.75;29.90;52.70;;;;;;111310;1240;49213;-66
2023/07/17 08:29:54;;;;;;;;;8.00;8.00;30.00;52.70;;;;;;111368;1240;49865;-65
2023/07/17 08:32:21;;;;;;;;;14.25;14.00;30.00;52.70;;;;;;111238;1240;53533;-63
2023/07/17 08:34:48;;;;;;;;;16.75;15.75;30.00;53.20;;;;;;111255;1241;44755;-63
2023/07/17 08:37:15;;;;;;;;;17.00;16.00;30.00;53.90;;;;;;111267;1239;49750;-68
2023/07/17 08:39:42;;;;;;;;;19.00;18.00;30.10;53.70;;;;;;111254;1238;49063;-64
2023/07/17 08:42:10;;;;;;;;;21.00;17.25;30.10;54.00;;;;;;111246;1244;53229;-63
2023/07/17 08:44:38;;;;;;;;;19.25;17.50;30.10;54.20;;;;;;111245;1238;45313;-65
2023/07/17 08:47:07;;;;;;;;;26.67;23.67;30.20;54.40;;;;;;111245;1243;49405;-64
2023/07/17 08:49:38;;;;;;;;;22.00;19.00;30.10;53.60;;;;;;111267;1240;49372;-64
2023/07/17 08:52:07;;;;;;;;;21.00;20.00;30.20;53.10;;;;;;111249;1244;53777;-65
2023/07/17 08:54:34;;;;;;;;;21.00;20.25;30.20;52.80;;;;;;111366;1244;44542;-63
2023/07/17 08:57:03;;;;;;;;;24.50;22.50;30.20;51.60;;;;;;111297;1240;48870;-64
2023/07/17 08:59:32;;;;;;;;;21.00;20.25;30.20;50.80;;;;;;111245;1243;49991;-64
2023/07/17 09:02:00;;;;;;;;;19.00;18.33;30.20;50.00;;;;;;111311;1241;53610;-63
2023/07/17 09:04:30;;;;;;;;;26.00;24.00;30.20;49.50;;;;;;111306;1243;44819;-66
2023/07/17 09:06:57;;;;;;;;;24.75;24.00;30.20;49.20;;;;;;111265;1241;49763;-66
2023/07/17 09:09:24;;;;;;;;;17.75;16.75;30.20;48.80;;;;;;111298;1240;50012;-65
2023/07/17 09:12:07;;;;;;;;;21.75;20.25;30.20;48.50;;;;;;111320;1243;54274;-67
2023/07/17 09:14:35;;;;;;;;;20.00;18.33;30.10;48.20;;;;;;111370;1243;44291;-67
2023/07/17 09:17:04;;;;;;;;;21.25;19.75;30.10;47.90;;;;;;111300;1238;50101;-66
2023/07/17 09:19:31;;;;;;;;;21.00;19.00;30.10;47.70;;;;;;111322;1244;49237;-67
2023/07/17 09:21:59;;;;;;;;;22.00;21.00;30.10;47.50;;;;;;111265;1238;54901;-66
2023/07/17 09:24:27;;;;;;;;;20.00;18.00;30.10;47.10;;;;;;111282;1243;45938;-66
2023/07/17 09:26:56;;;;;;;;;56.00;43.25;30.00;47.10;;;;;;111291;1243;50648;-65
2023/07/17 09:29:24;;;;;;;;;80.75;62.75;30.00;47.10;;;;;;111236;1244;49917;-66
2023/07/17 09:31:51;;;;;;;;;61.00;44.50;30.00;47.40;;;;;;111284;1243;54294;-65
2023/07/17 09:34:18;;;;;;;;;55.25;39.00;30.00;47.20;;;;;;111313;1239;44351;-66
2023/07/17 09:36:50;;;;;;;;;56.00;42.33;30.00;46.80;;;;;;111282;1240;50091;-69
2023/07/17 09:39:18;;;;;;;;;58.75;44.25;30.00;46.70;;;;;;111263;1242;50312;-67
2023/07/17 09:41:45;;;;;;;;;56.00;42.00;30.00;47.20;;;;;;111263;1240;53701;-67
2023/07/17 09:44:18;;;;;;;;;50.75;40.75;30.00;47.20;;;;;;111349;1238;44864;-67
2023/07/17 09:46:45;;;;;;;;;53.50;39.25;30.00;47.90;;;;;;111276;1241;48886;-67
2023/07/17 09:49:13;;;;;;;;;51.67;39.00;30.00;48.00;;;;;;111300;1241;49832;-67
2023/07/17 09:51:40;;;;;;;;;52.75;40.25;30.00;48.00;;;;;;111282;1239;53952;-67
2023/07/17 09:54:08;;;;;;;;;52.00;40.00;30.00;48.30;;;;;;111352;1244;44733;-67
2023/07/17 09:56:36;;;;;;;;;49.50;38.25;30.10;48.50;;;;;;111318;1244;49706;-67
2023/07/17 09:59:13;;;;;;;;;56.67;40.00;30.10;48.70;;;;;;111195;1244;50597;-67
2023/07/17 10:01:47;;;;;;;;;54.75;40.75;30.20;48.80;;;;;;111263;1238;54862;-67
2023/07/17 10:04:35;;;;;;;;;48.50;37.00;30.20;48.90;;;;;;111298;1240;44228;-67
2023/07/17 10:07:04;;;;;;;;;48.25;37.00;30.30;49.00;;;;;;111252;1243;49919;-66
2023/07/17 10:09:35;;;;;;;;;53.00;40.25;30.30;49.10;;;;;;111294;1238;49242;-68
2023/07/17 10:12:03;;;;;;;;;54.67;39.00;30.30;49.40;;;;;;111226;1240;54565;-66
2023/07/17 10:14:31;;;;;;;;;47.50;36.75;30.40;49.40;;;;;;111289;1242;44415;-67
2023/07/17 10:16:58;;;;;;;;;48.50;36.00;30.50;49.60;;;;;;111260;1240;50569;-67
2023/07/17 10:19:44;;;;;;;;;48.25;34.25;30.50;49.60;;;;;;111128;1244;49636;-67
2023/07/17 10:22:14;;;;;;;;;49.75;38.00;30.50;49.20;;;;;;111308;1238;53584;-66
2023/07/17 10:24:41;;;;;;;;;47.75;35.50;30.60;49.70;;;;;;111266;1243;44576;-67
2023/07/17 10:27:08;;;;;;;;;47.67;35.00;30.60;49.90;;;;;;111277;1241;49659;-70
2023/07/17 10:29:44;;;;;;;;;45.00;37.00;30.70;49.80;;;;;;111287;1243;50014;-69
2023/07/17 10:32:14;;;;;;;;;49.25;35.25;30.70;49.90;;;;;;111279;1242;53747;-67
2023/07/17 10:34:52;;;;;;;;;44.00;35.00;30.80;50.20;;;;;;111296;1243;44738;-66
2023/07/17 10:37:28;;;;;;;;;46.25;35.25;30.80;50.20;;;;;;111246;1243;49437;-66
2023/07/17 10:40:07;;;;;;;;;46.25;35.25;30.80;50.20;;;;;;111214;1238;49325;-66
2023/07/17 10:42:34;;;;;;;;;47.25;34.00;30.90;50.70;;;;;;111253;1240;54323;-67
2023/07/17 10:45:11;;;;;;;;;43.25;34.50;30.90;50.10;;;;;;111274;1241;44941;-67
2023/07/17 10:47:38;;;;;;;;;45.25;33.00;31.00;50.20;;;;;;111236;1243;50603;-66
2023/07/17 10:50:06;;;;;;;;;44.50;34.25;31.00;50.20;;;;;;111235;1243;49892;-67
2023/07/17 10:52:34;;;;;;;;;40.75;31.25;31.00;50.20;;;;;;111250;1238;54311;-67
2023/07/17 10:55:05;;;;;;;;;42.50;32.00;31.00;50.40;;;;;;111279;1244;45294;-67
2023/07/17 10:57:32;;;;;;;;;40.00;33.00;31.10;50.30;;;;;;111298;1243;49330;-67
2023/07/17 10:59:59;;;;;;;;;42.25;33.75;31.10;50.50;;;;;;111303;1243;49133;-67
2023/07/17 11:02:27;;;;;;;;;41.75;32.25;31.20;50.00;;;;;;111207;1244;53461;-66
2023/07/17 11:05:01;;;;;;;;;36.50;31.00;31.20;50.40;;;;;;111359;1239;44881;-67
2023/07/17 11:07:32;;;;;;;;;43.00;33.50;31.20;51.00;;;;;;111290;1243;49523;-66
2023/07/17 11:09:59;;;;;;;;;44.00;33.00;31.20;50.40;;;;;;111274;1240;50867;-67
2023/07/17 11:12:27;;;;;;;;;38.00;31.25;31.30;50.40;;;;;;111256;1238;53704;-68
2023/07/17 11:14:54;;;;;;;;;42.50;33.00;31.30;50.40;;;;;;111619;1243;44336;-68
2023/07/17 11:17:21;;;;;;;;;44.75;36.00;31.30;50.60;;;;;;111252;1240;49711;-67
2023/07/17 11:19:48;;;;;;;;;41.75;33.25;31.30;50.00;;;;;;111302;1239;50358;-66
2023/07/17 11:22:15;;;;;;;;;37.25;29.50;31.30;50.30;;;;;;111256;1246;53844;-69
2023/07/17 11:24:42;;;;;;;;;40.00;32.00;31.30;50.50;;;;;;111297;1239;44628;-66
2023/07/17 11:27:09;;;;;;;;;36.00;29.75;31.40;50.60;;;;;;111293;1240;49900;-66
2023/07/17 11:29:39;;;;;;;;;39.00;31.00;31.40;50.40;;;;;;111276;1240;49910;-66
2023/07/17 11:32:06;;;;;;;;;46.50;33.75;31.40;50.40;;;;;;111221;1240;54684;-67
2023/07/17 11:34:35;;;;;;;;;34.50;29.50;31.40;50.40;;;;;;111343;1244;44349;-68
2023/07/17 11:37:03;;;;;;;;;36.75;32.00;31.40;50.40;;;;;;111277;1238;49634;-68
2023/07/17 11:39:32;;;;;;;;;39.00;31.00;31.50;50.70;;;;;;111266;1241;50288;-67
2023/07/17 11:41:59;;;;;;;;;38.75;31.50;31.50;50.50;;;;;;111332;1243;54366;-66
2023/07/17 11:44:26;;;;;;;;;34.75;29.00;31.50;50.50;;;;;;111365;1244;45829;-67
2023/07/17 11:47:05;;;;;;;;;40.33;32.67;31.50;50.50;;;;;;111338;1239;49804;-67
2023/07/17 11:49:37;;;;;;;;;33.25;29.75;31.50;51.00;;;;;;111354;1243;49740;-67
2023/07/17 11:52:17;;;;;;;;;37.75;31.50;31.50;50.50;;;;;;111359;1243;53299;-66
2023/07/17 11:54:44;;;;;;;;;39.25;31.75;31.50;50.50;;;;;;111406;1238;44416;-67
2023/07/17 11:57:11;;;;;;;;;36.25;30.00;31.60;50.70;;;;;;111422;1243;50448;-66
2023/07/17 11:59:38;;;;;;;;;36.75;30.50;31.60;50.50;;;;;;111444;1243;50784;-66
2023/07/17 12:02:05;;;;;;;;;37.00;31.00;31.60;50.50;;;;;;111361;1243;53753;-68
2023/07/17 12:04:39;;;;;;;;;34.25;32.00;31.70;50.60;;;;;;111568;1238;44487;-67
2023/07/17 12:07:18;;;;;;;;;34.75;28.25;31.60;50.70;;;;;;111334;1238;49085;-66
2023/07/17 12:09:46;;;;;;;;;34.25;29.00;31.70;50.60;;;;;;111349;1243;49418;-66
2023/07/17 12:12:13;;;;;;;;;37.25;28.75;31.70;50.50;;;;;;111275;1244;53457;-67
2023/07/17 12:14:40;;;;;;;;;40.33;32.00;31.70;50.70;;;;;;111300;1243;45252;-67
2023/07/17 12:17:07;;;;;;;;;31.00;29.00;31.70;50.50;;;;;;111278;1243;49088;-66
2023/07/17 12:19:34;;;;;;;;;33.33;29.33;31.70;50.50;;;;;;111268;1239;49792;-66
2023/07/17 12:22:01;;;;;;;;;31.25;27.50;31.70;51.00;;;;;;111292;1238;54477;-66
2023/07/17 12:24:28;;;;;;;;;38.25;29.50;31.70;50.50;;;;;;111297;1238;45173;-66
2023/07/17 12:26:56;;;;;;;;;32.75;30.00;31.70;50.60;;;;;;111285;1238;49110;-66
2023/07/17 12:29:23;;;;;;;;;39.00;31.25;31.70;50.80;;;;;;111259;1240;49209;-66
2023/07/17 12:31:50;;;;;;;;;31.00;28.50;31.70;50.60;;;;;;111259;1243;54130;-66